createdAt,value
2023-01-13T00:04:54.718Z,40.25
2023-01-13T00:09:57.798Z,48.00
2023-01-13T00:15:00.364Z,36.45
2023-01-13T00:20:03.804Z,32.78
2023-01-13T00:25:07.965Z,41.88
2023-01-13T00:30:12.739Z,50.08
2023-01-13T00:40:17.898Z,25.58
2023-01-13T00:45:20.503Z,42.83
2023-01-13T00:50:23.198Z,50.40
2023-01-13T00:55:26.119Z,45.97
2023-01-13T01:00:33.351Z,43.45
2023-01-13T01:05:37.085Z,30.00
2023-01-13T01:10:40.132Z,50.60
2023-01-13T01:15:47.805Z,53.35
2023-01-13T01:20:50.735Z,24.42
2023-01-13T01:25:53.278Z,40.55
2023-01-13T01:30:58.412Z,35.30
2023-01-13T01:36:03.696Z,44.63
2023-01-13T01:41:06.631Z,16.73
2023-01-13T01:46:09.211Z,50.92
2023-01-13T01:51:13.416Z,45.38
2023-01-13T01:56:16.529Z,51.20
2023-01-13T02:01:20.729Z,52.47
2023-01-13T02:06:24.157Z,61.25
2023-01-13T02:17:32.324Z,53.40
2023-01-13T02:22:47.148Z,18.80
2023-01-13T02:27:58.874Z,45.33
2023-01-13T02:33:27.331Z,35.92
2023-01-13T02:38:34.696Z,43.53
2023-01-13T02:43:58.071Z,60.95
2023-01-13T02:49:05.207Z,47.75
2023-01-13T02:54:11.353Z,45.80
2023-01-13T02:59:14.598Z,63.97
2023-01-13T03:04:56.441Z,58.42
2023-01-13T03:10:10.846Z,53.50
2023-01-13T03:15:28.881Z,38.40
2023-01-13T03:20:39.529Z,55.65
2023-01-13T03:25:51.795Z,40.60
2023-01-13T03:30:58.938Z,47.15
2023-01-13T03:36:08.341Z,50.15
2023-01-13T03:41:38.306Z,63.30
2023-01-13T03:47:20.173Z,36.42
2023-01-13T03:52:26.793Z,47.15
2023-01-13T03:57:35.997Z,52.92
2023-01-13T04:02:50.061Z,17.13
2023-01-13T04:08:21.332Z,47.80
2023-01-13T04:13:26.707Z,23.85
2023-01-13T04:18:31.710Z,32.33
2023-01-13T04:23:35.972Z,42.05
2023-01-13T04:28:40.889Z,17.40
2023-01-13T04:33:44.712Z,24.98
2023-01-13T04:38:47.543Z,31.93
2023-01-13T04:44:09.829Z,18.95
2023-01-13T04:49:13.553Z,25.03
2023-01-13T04:54:16.361Z,20.58
2023-01-13T04:59:18.952Z,25.55
2023-01-13T05:04:21.662Z,12.90
2023-01-13T05:09:25.304Z,32.78
2023-01-13T05:14:46.452Z,15.63
2023-01-13T05:19:49.108Z,17.02
2023-01-13T05:25:10.862Z,20.90
2023-01-13T05:30:38.080Z,16.90
2023-01-13T05:35:43.736Z,21.65
2023-01-13T05:41:06.656Z,29.63
2023-01-13T05:46:09.983Z,37.47
2023-01-13T05:51:13.377Z,25.48
2023-01-13T05:56:18.014Z,38.28
2023-01-13T06:01:39.143Z,25.55
2023-01-13T06:06:43.511Z,30.85
2023-01-13T06:11:46.494Z,29.23
2023-01-13T06:16:49.080Z,23.25
2023-01-13T06:21:52.146Z,30.10
2023-01-13T06:26:54.918Z,27.52
2023-01-13T06:31:57.629Z,30.27
2023-01-13T06:37:00.332Z,23.92
2023-01-13T06:42:23.302Z,30.27
2023-01-13T06:47:26.585Z,35.92
2023-01-13T06:52:30.592Z,30.83
2023-01-13T06:57:33.113Z,32.72
2023-01-13T07:02:36.076Z,26.80
2023-01-13T07:07:40.316Z,15.85
2023-01-13T07:13:01.689Z,31.38
2023-01-13T07:18:04.427Z,37.60
2023-01-13T07:23:07.626Z,23.23
2023-01-13T07:28:10.161Z,17.65
2023-01-13T07:33:13.003Z,25.80
2023-01-13T07:38:16.451Z,27.33
2023-01-13T07:43:34.489Z,44.70
2023-01-13T07:48:38.230Z,32.90
2023-01-13T07:53:40.940Z,29.92
2023-01-13T07:58:52.215Z,35.80
2023-01-13T08:03:59.975Z,38.35
2023-01-13T08:09:02.591Z,27.85
2023-01-13T08:14:06.435Z,29.10
2023-01-13T08:19:10.736Z,31.23
2023-01-13T08:24:13.627Z,17.17
2023-01-13T08:29:17.680Z,34.33
2023-01-13T08:34:20.488Z,38.13
2023-01-13T08:39:24.781Z,35.90
2023-01-13T08:44:29.702Z,46.10
2023-01-13T08:49:32.363Z,25.10
2023-01-13T08:54:35.664Z,17.23
2023-01-13T08:59:38.319Z,22.33
2023-01-13T09:04:41.275Z,47.50
2023-01-13T09:09:44.753Z,43.05
2023-01-13T09:14:47.751Z,52.92
2023-01-13T09:19:50.702Z,32.33
2023-01-13T09:24:55.009Z,16.85
2023-01-13T09:29:57.664Z,35.22
2023-01-13T09:35:01.757Z,19.90
2023-01-13T09:40:07.760Z,27.77
2023-01-13T09:45:22.848Z,31.25
2023-01-13T09:50:43.615Z,32.45
2023-01-13T09:55:46.916Z,19.73
2023-01-13T10:01:21.794Z,35.90
2023-01-13T10:06:33.433Z,29.98
2023-01-13T10:12:00.131Z,25.40
2023-01-13T10:17:22.038Z,21.88
2023-01-13T10:22:39.245Z,33.70
2023-01-13T10:27:46.929Z,36.10
2023-01-13T10:32:57.583Z,31.45
2023-01-13T10:38:00.265Z,25.13
2023-01-13T10:43:06.768Z,39.83
2023-01-13T10:48:14.583Z,50.35
2023-01-13T10:53:23.819Z,29.90
2023-01-13T10:58:26.881Z,23.58
2023-01-13T11:03:41.663Z,23.75
2023-01-13T11:08:46.466Z,35.55
2023-01-13T11:14:09.321Z,23.13
2023-01-13T11:19:16.574Z,29.95
2023-01-13T11:24:23.437Z,40.28
2023-01-13T11:29:37.343Z,37.90
2023-01-13T11:34:42.316Z,24.48
2023-01-13T11:40:08.200Z,30.38
2023-01-13T11:45:31.021Z,27.70
2023-01-13T11:51:10.318Z,41.70
2023-01-13T11:56:20.063Z,35.83
2023-01-13T12:01:47.741Z,28.90
2023-01-13T12:07:23.201Z,37.28
2023-01-13T12:12:44.236Z,27.15
2023-01-13T12:18:11.752Z,26.08
2023-01-13T12:23:30.728Z,31.55
2023-01-13T12:29:14.200Z,40.35
2023-01-13T12:34:39.184Z,17.08
2023-01-13T12:39:50.968Z,22.63
2023-01-13T12:45:07.262Z,22.15
2023-01-13T12:50:27.554Z,21.52
2023-01-13T12:55:34.925Z,23.58
2023-01-13T13:00:40.209Z,20.60
2023-01-13T13:06:02.260Z,25.13
2023-01-13T13:11:32.516Z,40.25
2023-01-13T13:16:43.481Z,29.55
2023-01-13T13:22:14.513Z,21.55
2023-01-13T13:27:17.584Z,26.30
2023-01-13T13:32:41.774Z,11.82
2023-01-13T13:38:40.679Z,26.50
2023-01-13T13:44:03.792Z,16.48
2023-01-13T13:49:06.505Z,17.10
2023-01-13T13:54:13.338Z,17.75
2023-01-13T13:59:23.420Z,17.55
2023-01-13T14:04:26.146Z,14.02
2023-01-13T14:09:38.698Z,24.83
2023-01-13T14:14:45.714Z,10.05
2023-01-13T14:20:05.385Z,16.88
2023-01-13T14:25:27.189Z,19.85
2023-01-13T14:30:29.924Z,21.33
2023-01-13T14:35:32.424Z,13.65
2023-01-13T14:40:42.054Z,21.27
2023-01-13T14:45:59.503Z,23.48
2023-01-13T14:51:05.838Z,13.30
2023-01-13T14:56:40.790Z,21.08
2023-01-13T15:01:43.413Z,28.52
2023-01-13T15:06:47.565Z,24.17
2023-01-13T15:11:50.411Z,19.60
2023-01-13T15:16:53.019Z,15.38
2023-01-13T15:22:14.264Z,23.15
2023-01-13T15:27:21.416Z,23.30
2023-01-13T15:32:24.067Z,17.20
2023-01-13T15:37:26.674Z,23.08
2023-01-13T15:42:47.884Z,20.08
2023-01-13T15:47:50.451Z,17.45
2023-01-13T15:52:53.131Z,9.65
2023-01-13T15:57:56.488Z,18.80
2023-01-13T16:02:59.938Z,13.13
2023-01-13T16:08:02.529Z,16.58
2023-01-13T16:13:05.567Z,25.27
2023-01-13T16:18:10.669Z,15.68
2023-01-13T16:23:13.793Z,12.63
2023-01-13T16:28:25.055Z,21.50
2023-01-13T16:33:27.655Z,9.38
2023-01-13T16:38:32.762Z,24.52
2023-01-13T16:43:35.663Z,19.00
2023-01-13T16:48:38.215Z,30.10
2023-01-13T16:53:40.848Z,20.33
2023-01-13T16:58:43.418Z,26.38
2023-01-13T17:03:49.179Z,26.88
2023-01-13T17:08:53.230Z,27.08
2023-01-13T17:13:57.303Z,15.23
2023-01-13T17:18:59.875Z,18.35
2023-01-13T17:24:05.656Z,18.60
2023-01-13T17:29:16.728Z,10.38
2023-01-13T17:34:20.282Z,22.40
2023-01-13T17:39:24.883Z,14.68
2023-01-13T17:44:28.461Z,11.68
2023-01-13T17:49:31.000Z,16.23
2023-01-13T17:54:33.898Z,16.02
2023-01-13T17:59:37.575Z,6.57
2023-01-13T18:04:40.648Z,10.38
2023-01-13T18:09:43.306Z,8.02
2023-01-13T18:14:46.020Z,8.38
2023-01-13T18:20:07.584Z,7.22
2023-01-13T18:25:31.580Z,4.97
2023-01-13T18:30:34.291Z,10.30
2023-01-13T18:35:41.406Z,8.65
2023-01-13T18:40:44.867Z,9.63
2023-01-13T18:45:50.577Z,6.82
2023-01-13T18:50:56.269Z,11.65
2023-01-13T18:55:59.005Z,24.63
2023-01-13T19:01:03.633Z,14.18
2023-01-13T19:06:11.724Z,20.67
2023-01-13T19:11:14.446Z,23.83
2023-01-13T19:16:20.527Z,12.20
2023-01-13T19:21:24.705Z,19.08
2023-01-13T19:31:30.358Z,22.23
2023-01-13T19:36:34.329Z,13.82
2023-01-13T19:41:55.910Z,14.18
2023-01-13T19:46:58.906Z,22.95
2023-01-13T19:52:02.369Z,18.38
2023-01-13T19:57:05.755Z,22.75
2023-01-13T20:02:27.648Z,18.05
2023-01-13T20:07:31.586Z,17.92
2023-01-13T20:12:34.180Z,20.57
2023-01-13T20:17:36.747Z,21.23
2023-01-13T20:22:40.119Z,24.83
2023-01-13T20:27:43.279Z,21.58
2023-01-13T20:32:48.304Z,15.45
2023-01-13T20:37:51.136Z,14.20
2023-01-13T20:42:53.924Z,16.00
2023-01-13T20:47:56.627Z,17.55
2023-01-13T20:52:59.292Z,11.20
2023-01-13T20:58:02.068Z,13.75
2023-01-13T21:03:04.784Z,26.30
2023-01-13T21:08:07.545Z,14.70
2023-01-13T21:13:31.890Z,7.85
2023-01-13T21:18:53.162Z,22.00
2023-01-13T21:23:55.902Z,11.10
2023-01-13T21:28:59.353Z,13.48
2023-01-13T21:34:02.293Z,15.05
2023-01-13T21:39:05.046Z,22.85
2023-01-13T21:44:36.231Z,20.83
2023-01-13T21:49:44.189Z,19.75
2023-01-13T21:55:05.204Z,15.55
2023-01-13T22:00:08.619Z,32.38
2023-01-13T22:05:13.229Z,22.50
2023-01-13T22:10:34.683Z,25.27
2023-01-13T22:15:39.653Z,19.90
2023-01-13T22:20:42.440Z,28.98
2023-01-13T22:25:44.921Z,24.60
2023-01-13T22:30:49.811Z,32.20
2023-01-13T22:35:58.793Z,20.23
2023-01-13T22:41:06.710Z,29.98
2023-01-13T22:46:11.474Z,21.23
2023-01-13T22:56:23.420Z,26.48
2023-01-13T23:01:28.125Z,23.85
2023-01-13T23:11:35.265Z,17.55
2023-01-13T23:16:39.488Z,17.83
2023-01-13T23:21:42.640Z,21.52
2023-01-13T23:26:45.375Z,14.85
2023-01-13T23:31:48.048Z,17.85
2023-01-13T23:36:52.050Z,29.53
2023-01-13T23:41:54.979Z,32.10
2023-01-13T23:47:15.722Z,21.13
2023-01-13T23:52:18.517Z,32.17
2023-01-13T23:57:22.126Z,15.40
